sensor_id;sensor_type;location;lat;lon;timestamp;temperature;humidity
20349;DHT22;10332;50.208;18.988;2023-12-14T00:01:19;6.40;1.00
20349;DHT22;10332;50.208;18.988;2023-12-14T00:03:46;6.40;1.00
20349;DHT22;10332;50.208;18.988;2023-12-14T00:06:14;6.40;1.00
20349;DHT22;10332;50.208;18.988;2023-12-14T00:08:42;6.40;1.00
20349;DHT22;10332;50.208;18.988;2023-12-14T00:11:10;6.30;1.00
20349;DHT22;10332;50.208;18.988;2023-12-14T00:13:40;6.30;1.00
20349;DHT22;10332;50.208;18.988;2023-12-14T00:16:08;6.20;1.00
20349;DHT22;10332;50.208;18.988;2023-12-14T00:18:36;6.20;1.00
20349;DHT22;10332;50.208;18.988;2023-12-14T00:21:04;6.20;1.00
20349;DHT22;10332;50.208;18.988;2023-12-14T00:23:33;6.20;1.00
20349;DHT22;10332;50.208;18.988;2023-12-14T00:26:01;6.20;1.00
20349;DHT22;10332;50.208;18.988;2023-12-14T00:28:28;6.20;1.00
20349;DHT22;10332;50.208;18.988;2023-12-14T00:31:00;6.20;1.00
20349;DHT22;10332;50.208;18.988;2023-12-14T00:33:28;6.20;1.00
20349;DHT22;10332;50.208;18.988;2023-12-14T00:35:56;6.10;1.00
20349;DHT22;10332;50.208;18.988;2023-12-14T00:38:23;6.10;1.00
20349;DHT22;10332;50.208;18.988;2023-12-14T00:40:51;6.10;1.00
20349;DHT22;10332;50.208;18.988;2023-12-14T00:43:19;6.20;1.00
20349;DHT22;10332;50.208;18.988;2023-12-14T00:45:47;6.20;1.00
20349;DHT22;10332;50.208;18.988;2023-12-14T00:48:16;6.20;1.00
20349;DHT22;10332;50.208;18.988;2023-12-14T00:50:43;6.30;1.00
20349;DHT22;10332;50.208;18.988;2023-12-14T00:53:11;6.30;1.00
20349;DHT22;10332;50.208;18.988;2023-12-14T00:55:38;6.30;1.00
20349;DHT22;10332;50.208;18.988;2023-12-14T00:58:06;6.40;1.00
20349;DHT22;10332;50.208;18.988;2023-12-14T01:00:35;6.40;1.00
20349;DHT22;10332;50.208;18.988;2023-12-14T01:03:03;6.50;1.00
20349;DHT22;10332;50.208;18.988;2023-12-14T01:05:30;6.50;1.00
20349;DHT22;10332;50.208;18.988;2023-12-14T01:07:58;6.60;1.00
20349;DHT22;10332;50.208;18.988;2023-12-14T01:10:25;6.60;1.00
20349;DHT22;10332;50.208;18.988;2023-12-14T01:12:53;6.70;1.00
20349;DHT22;10332;50.208;18.988;2023-12-14T01:15:20;6.70;1.00
20349;DHT22;10332;50.208;18.988;2023-12-14T01:17:47;6.70;1.00
20349;DHT22;10332;50.208;18.988;2023-12-14T01:20:15;6.70;1.00
20349;DHT22;10332;50.208;18.988;2023-12-14T01:22:43;6.70;1.00
20349;DHT22;10332;50.208;18.988;2023-12-14T01:25:10;6.70;1.00
20349;DHT22;10332;50.208;18.988;2023-12-14T01:27:37;6.70;1.00
20349;DHT22;10332;50.208;18.988;2023-12-14T01:30:05;6.60;1.00
20349;DHT22;10332;50.208;18.988;2023-12-14T01:32:33;6.60;1.00
20349;DHT22;10332;50.208;18.988;2023-12-14T01:35:01;6.60;1.00
20349;DHT22;10332;50.208;18.988;2023-12-14T01:37:29;6.70;1.00
20349;DHT22;10332;50.208;18.988;2023-12-14T01:39:56;6.70;1.00
20349;DHT22;10332;50.208;18.988;2023-12-14T01:42:24;6.70;1.00
20349;DHT22;10332;50.208;18.988;2023-12-14T01:44:51;6.70;1.00
20349;DHT22;10332;50.208;18.988;2023-12-14T01:47:18;6.70;1.00
20349;DHT22;10332;50.208;18.988;2023-12-14T01:49:46;6.80;1.00
20349;DHT22;10332;50.208;18.988;2023-12-14T01:52:13;6.80;1.00
20349;DHT22;10332;50.208;18.988;2023-12-14T01:54:41;6.80;1.00
20349;DHT22;10332;50.208;18.988;2023-12-14T01:57:08;6.90;1.00
20349;DHT22;10332;50.208;18.988;2023-12-14T01:59:36;6.90;1.00
20349;DHT22;10332;50.208;18.988;2023-12-14T02:02:03;6.80;1.00
20349;DHT22;10332;50.208;18.988;2023-12-14T02:04:33;6.80;1.00
20349;DHT22;10332;50.208;18.988;2023-12-14T02:07:00;6.80;1.00
20349;DHT22;10332;50.208;18.988;2023-12-14T02:09:27;6.70;1.00
20349;DHT22;10332;50.208;18.988;2023-12-14T02:11:55;6.70;1.00
20349;DHT22;10332;50.208;18.988;2023-12-14T02:14:22;6.70;1.00
20349;DHT22;10332;50.208;18.988;2023-12-14T02:16:50;6.60;1.00
20349;DHT22;10332;50.208;18.988;2023-12-14T02:19:18;6.50;1.00
20349;DHT22;10332;50.208;18.988;2023-12-14T02:21:45;6.40;1.00
20349;DHT22;10332;50.208;18.988;2023-12-14T02:24:12;6.30;1.00
20349;DHT22;10332;50.208;18.988;2023-12-14T02:26:39;6.30;1.00
20349;DHT22;10332;50.208;18.988;2023-12-14T02:29:07;6.20;1.00
20349;DHT22;10332;50.208;18.988;2023-12-14T02:31:34;6.20;1.00
20349;DHT22;10332;50.208;18.988;2023-12-14T02:34:02;6.30;1.00
20349;DHT22;10332;50.208;18.988;2023-12-14T02:36:29;6.30;1.00
20349;DHT22;10332;50.208;18.988;2023-12-14T02:38:56;6.30;1.00
20349;DHT22;10332;50.208;18.988;2023-12-14T02:41:24;6.40;1.00
20349;DHT22;10332;50.208;18.988;2023-12-14T02:43:51;6.50;1.00
20349;DHT22;10332;50.208;18.988;2023-12-14T02:46:18;6.50;1.00
20349;DHT22;10332;50.208;18.988;2023-12-14T02:48:46;6.60;1.00
20349;DHT22;10332;50.208;18.988;2023-12-14T02:51:14;6.60;1.00
20349;DHT22;10332;50.208;18.988;2023-12-14T02:53:44;6.60;1.00
20349;DHT22;10332;50.208;18.988;2023-12-14T02:56:11;6.60;1.00
20349;DHT22;10332;50.208;18.988;2023-12-14T02:58:39;6.60;1.00
20349;DHT22;10332;50.208;18.988;2023-12-14T03:01:06;6.60;1.00
20349;DHT22;10332;50.208;18.988;2023-12-14T03:03:37;6.60;1.00
20349;DHT22;10332;50.208;18.988;2023-12-14T03:06:04;6.60;1.00
20349;DHT22;10332;50.208;18.988;2023-12-14T03:08:32;6.50;1.00
20349;DHT22;10332;50.208;18.988;2023-12-14T03:10:59;6.50;1.00
20349;DHT22;10332;50.208;18.988;2023-12-14T03:13:27;6.60;1.00
20349;DHT22;10332;50.208;18.988;2023-12-14T03:15:55;6.60;1.00
20349;DHT22;10332;50.208;18.988;2023-12-14T03:18:23;6.60;1.00
20349;DHT22;10332;50.208;18.988;2023-12-14T03:20:50;6.60;1.00
20349;DHT22;10332;50.208;18.988;2023-12-14T03:23:18;6.70;1.00
20349;DHT22;10332;50.208;18.988;2023-12-14T03:25:45;6.70;1.00
20349;DHT22;10332;50.208;18.988;2023-12-14T03:28:13;6.70;1.00
20349;DHT22;10332;50.208;18.988;2023-12-14T03:30:40;6.70;1.00
20349;DHT22;10332;50.208;18.988;2023-12-14T03:33:07;6.70;1.00
20349;DHT22;10332;50.208;18.988;2023-12-14T03:35:35;6.70;1.00
20349;DHT22;10332;50.208;18.988;2023-12-14T03:38:03;6.70;1.00
20349;DHT22;10332;50.208;18.988;2023-12-14T03:40:30;6.70;1.00
20349;DHT22;10332;50.208;18.988;2023-12-14T03:42:58;6.70;1.00
20349;DHT22;10332;50.208;18.988;2023-12-14T03:45:25;6.70;1.00
20349;DHT22;10332;50.208;18.988;2023-12-14T03:47:52;6.70;99.90
20349;DHT22;10332;50.208;18.988;2023-12-14T03:50:20;6.70;99.90
20349;DHT22;10332;50.208;18.988;2023-12-14T03:52:47;6.70;99.90
20349;DHT22;10332;50.208;18.988;2023-12-14T03:55:15;6.70;99.90
20349;DHT22;10332;50.208;18.988;2023-12-14T03:57:43;6.70;99.90
20349;DHT22;10332;50.208;18.988;2023-12-14T04:00:11;6.60;99.90
20349;DHT22;10332;50.208;18.988;2023-12-14T04:02:40;6.60;99.90
20349;DHT22;10332;50.208;18.988;2023-12-14T04:05:08;6.60;99.90
20349;DHT22;10332;50.208;18.988;2023-12-14T04:07:39;6.60;99.90
20349;DHT22;10332;50.208;18.988;2023-12-14T04:10:09;6.60;99.90
20349;DHT22;10332;50.208;18.988;2023-12-14T04:12:38;6.60;99.90
20349;DHT22;10332;50.208;18.988;2023-12-14T04:15:06;6.60;99.90
20349;DHT22;10332;50.208;18.988;2023-12-14T04:17:34;6.60;99.90
20349;DHT22;10332;50.208;18.988;2023-12-14T04:20:02;6.60;99.90
20349;DHT22;10332;50.208;18.988;2023-12-14T04:22:33;6.70;99.90
20349;DHT22;10332;50.208;18.988;2023-12-14T04:25:01;6.70;99.90
20349;DHT22;10332;50.208;18.988;2023-12-14T04:27:28;6.70;99.90
20349;DHT22;10332;50.208;18.988;2023-12-14T04:29:57;6.70;99.90
20349;DHT22;10332;50.208;18.988;2023-12-14T04:32:25;6.60;99.90
20349;DHT22;10332;50.208;18.988;2023-12-14T04:34:52;6.70;99.90
20349;DHT22;10332;50.208;18.988;2023-12-14T04:37:20;6.70;99.90
20349;DHT22;10332;50.208;18.988;2023-12-14T04:39:47;6.70;99.90
20349;DHT22;10332;50.208;18.988;2023-12-14T04:42:14;6.70;99.90
20349;DHT22;10332;50.208;18.988;2023-12-14T04:44:41;6.70;99.90
20349;DHT22;10332;50.208;18.988;2023-12-14T04:47:09;6.70;99.90
20349;DHT22;10332;50.208;18.988;2023-12-14T04:49:36;6.70;99.90
20349;DHT22;10332;50.208;18.988;2023-12-14T04:52:04;6.60;99.90
20349;DHT22;10332;50.208;18.988;2023-12-14T04:54:33;6.60;99.90
20349;DHT22;10332;50.208;18.988;2023-12-14T04:57:00;6.60;99.90
20349;DHT22;10332;50.208;18.988;2023-12-14T04:59:27;6.70;99.90
20349;DHT22;10332;50.208;18.988;2023-12-14T05:01:55;6.70;99.90
20349;DHT22;10332;50.208;18.988;2023-12-14T05:04:22;6.70;99.90
20349;DHT22;10332;50.208;18.988;2023-12-14T05:06:49;6.70;99.90
20349;DHT22;10332;50.208;18.988;2023-12-14T05:09:17;6.70;99.90
20349;DHT22;10332;50.208;18.988;2023-12-14T05:11:44;6.70;99.90
20349;DHT22;10332;50.208;18.988;2023-12-14T05:14:12;6.70;99.90
20349;DHT22;10332;50.208;18.988;2023-12-14T05:16:39;6.70;99.90
20349;DHT22;10332;50.208;18.988;2023-12-14T05:19:06;6.80;99.90
20349;DHT22;10332;50.208;18.988;2023-12-14T05:21:34;6.80;99.90
20349;DHT22;10332;50.208;18.988;2023-12-14T05:24:01;6.70;99.90
20349;DHT22;10332;50.208;18.988;2023-12-14T05:26:30;6.70;99.90
20349;DHT22;10332;50.208;18.988;2023-12-14T05:28:57;6.70;99.90
20349;DHT22;10332;50.208;18.988;2023-12-14T05:31:25;6.70;99.90
20349;DHT22;10332;50.208;18.988;2023-12-14T05:33:52;6.70;99.90
20349;DHT22;10332;50.208;18.988;2023-12-14T05:36:19;6.70;99.90
20349;DHT22;10332;50.208;18.988;2023-12-14T05:38:47;6.70;99.90
20349;DHT22;10332;50.208;18.988;2023-12-14T05:41:14;6.60;99.90
20349;DHT22;10332;50.208;18.988;2023-12-14T05:43:42;6.60;1.00
20349;DHT22;10332;50.208;18.988;2023-12-14T05:46:20;6.60;1.00
20349;DHT22;10332;50.208;18.988;2023-12-14T05:48:51;6.60;1.00
20349;DHT22;10332;50.208;18.988;2023-12-14T05:51:29;6.60;1.00
20349;DHT22;10332;50.208;18.988;2023-12-14T05:53:57;6.60;1.00
20349;DHT22;10332;50.208;18.988;2023-12-14T05:56:26;6.60;1.00
20349;DHT22;10332;50.208;18.988;2023-12-14T05:58:53;6.60;1.00
20349;DHT22;10332;50.208;18.988;2023-12-14T06:01:22;6.60;1.00
20349;DHT22;10332;50.208;18.988;2023-12-14T06:03:51;6.70;1.00
20349;DHT22;10332;50.208;18.988;2023-12-14T06:06:18;6.70;1.00
20349;DHT22;10332;50.208;18.988;2023-12-14T06:08:46;6.70;1.00
20349;DHT22;10332;50.208;18.988;2023-12-14T06:11:14;6.70;1.00
20349;DHT22;10332;50.208;18.988;2023-12-14T06:13:41;6.60;1.00
20349;DHT22;10332;50.208;18.988;2023-12-14T06:16:08;6.70;1.00
20349;DHT22;10332;50.208;18.988;2023-12-14T06:18:40;6.70;1.00
20349;DHT22;10332;50.208;18.988;2023-12-14T06:21:11;6.60;1.00
20349;DHT22;10332;50.208;18.988;2023-12-14T06:23:39;6.60;1.00
20349;DHT22;10332;50.208;18.988;2023-12-14T06:26:07;6.60;1.00
20349;DHT22;10332;50.208;18.988;2023-12-14T06:28:34;6.60;1.00
20349;DHT22;10332;50.208;18.988;2023-12-14T06:31:02;6.60;1.00
20349;DHT22;10332;50.208;18.988;2023-12-14T06:33:30;6.60;1.00
20349;DHT22;10332;50.208;18.988;2023-12-14T06:35:58;6.60;1.00
20349;DHT22;10332;50.208;18.988;2023-12-14T06:38:25;6.60;1.00
20349;DHT22;10332;50.208;18.988;2023-12-14T06:40:53;6.60;1.00
20349;DHT22;10332;50.208;18.988;2023-12-14T06:43:20;6.70;1.00
20349;DHT22;10332;50.208;18.988;2023-12-14T06:45:47;6.70;1.00
20349;DHT22;10332;50.208;18.988;2023-12-14T06:48:15;6.70;1.00
20349;DHT22;10332;50.208;18.988;2023-12-14T06:50:42;6.70;1.00
20349;DHT22;10332;50.208;18.988;2023-12-14T06:53:14;6.70;1.00
20349;DHT22;10332;50.208;18.988;2023-12-14T06:55:43;6.70;1.00
20349;DHT22;10332;50.208;18.988;2023-12-14T06:58:10;6.80;1.00
20349;DHT22;10332;50.208;18.988;2023-12-14T07:00:39;6.80;1.00
20349;DHT22;10332;50.208;18.988;2023-12-14T07:03:06;6.70;1.00
20349;DHT22;10332;50.208;18.988;2023-12-14T07:05:33;6.80;1.00
20349;DHT22;10332;50.208;18.988;2023-12-14T07:08:01;6.80;1.00
20349;DHT22;10332;50.208;18.988;2023-12-14T07:10:28;6.80;1.00
20349;DHT22;10332;50.208;18.988;2023-12-14T07:12:55;6.80;1.00
20349;DHT22;10332;50.208;18.988;2023-12-14T07:15:23;6.90;1.00
20349;DHT22;10332;50.208;18.988;2023-12-14T07:17:51;6.90;1.00
20349;DHT22;10332;50.208;18.988;2023-12-14T07:20:18;6.90;99.90
20349;DHT22;10332;50.208;18.988;2023-12-14T07:22:45;6.90;99.90
20349;DHT22;10332;50.208;18.988;2023-12-14T07:25:13;6.90;99.90
20349;DHT22;10332;50.208;18.988;2023-12-14T07:27:40;6.90;99.90
20349;DHT22;10332;50.208;18.988;2023-12-14T07:30:08;6.80;99.90
20349;DHT22;10332;50.208;18.988;2023-12-14T07:32:36;6.70;99.90
20349;DHT22;10332;50.208;18.988;2023-12-14T07:35:04;6.60;1.00
20349;DHT22;10332;50.208;18.988;2023-12-14T07:37:32;6.70;1.00
20349;DHT22;10332;50.208;18.988;2023-12-14T07:40:00;6.70;1.00
20349;DHT22;10332;50.208;18.988;2023-12-14T07:42:27;6.70;1.00
20349;DHT22;10332;50.208;18.988;2023-12-14T07:44:54;6.80;1.00
20349;DHT22;10332;50.208;18.988;2023-12-14T07:47:22;6.80;1.00
20349;DHT22;10332;50.208;18.988;2023-12-14T07:49:49;6.70;1.00
20349;DHT22;10332;50.208;18.988;2023-12-14T07:52:17;6.70;1.00
20349;DHT22;10332;50.208;18.988;2023-12-14T07:54:44;6.70;1.00
20349;DHT22;10332;50.208;18.988;2023-12-14T07:57:12;6.70;1.00
20349;DHT22;10332;50.208;18.988;2023-12-14T07:59:39;6.70;1.00
20349;DHT22;10332;50.208;18.988;2023-12-14T08:02:06;6.70;1.00
20349;DHT22;10332;50.208;18.988;2023-12-14T08:04:34;6.80;1.00
20349;DHT22;10332;50.208;18.988;2023-12-14T08:07:01;6.80;1.00
20349;DHT22;10332;50.208;18.988;2023-12-14T08:09:29;6.80;1.00
20349;DHT22;10332;50.208;18.988;2023-12-14T08:11:57;6.90;1.00
20349;DHT22;10332;50.208;18.988;2023-12-14T08:14:24;6.90;1.00
20349;DHT22;10332;50.208;18.988;2023-12-14T08:16:51;6.90;1.00
20349;DHT22;10332;50.208;18.988;2023-12-14T08:19:19;7.00;1.00
20349;DHT22;10332;50.208;18.988;2023-12-14T08:21:46;7.00;1.00
20349;DHT22;10332;50.208;18.988;2023-12-14T08:24:14;7.00;1.00
20349;DHT22;10332;50.208;18.988;2023-12-14T08:26:41;7.00;1.00
20349;DHT22;10332;50.208;18.988;2023-12-14T08:29:09;7.00;99.90
20349;DHT22;10332;50.208;18.988;2023-12-14T08:31:36;7.10;99.90
20349;DHT22;10332;50.208;18.988;2023-12-14T08:34:04;7.10;99.90
20349;DHT22;10332;50.208;18.988;2023-12-14T08:36:31;7.20;99.90
20349;DHT22;10332;50.208;18.988;2023-12-14T08:38:59;7.20;99.90
20349;DHT22;10332;50.208;18.988;2023-12-14T08:41:26;7.30;99.90
20349;DHT22;10332;50.208;18.988;2023-12-14T08:43:53;7.30;99.90
20349;DHT22;10332;50.208;18.988;2023-12-14T08:46:22;7.40;99.90
20349;DHT22;10332;50.208;18.988;2023-12-14T08:48:50;7.40;99.90
20349;DHT22;10332;50.208;18.988;2023-12-14T08:51:17;7.40;99.90
20349;DHT22;10332;50.208;18.988;2023-12-14T08:53:46;7.50;76.30
20349;DHT22;10332;50.208;18.988;2023-12-14T08:56:14;7.50;1.00
20349;DHT22;10332;50.208;18.988;2023-12-14T08:58:41;7.50;1.00
20349;DHT22;10332;50.208;18.988;2023-12-14T09:01:08;7.50;1.00
20349;DHT22;10332;50.208;18.988;2023-12-14T09:03:36;7.50;1.00
20349;DHT22;10332;50.208;18.988;2023-12-14T09:06:03;7.50;1.00
20349;DHT22;10332;50.208;18.988;2023-12-14T09:08:32;7.50;1.00
20349;DHT22;10332;50.208;18.988;2023-12-14T09:11:00;7.50;1.00
20349;DHT22;10332;50.208;18.988;2023-12-14T09:13:27;7.50;1.00
20349;DHT22;10332;50.208;18.988;2023-12-14T09:15:54;7.50;1.00
20349;DHT22;10332;50.208;18.988;2023-12-14T09:18:22;7.50;1.00
20349;DHT22;10332;50.208;18.988;2023-12-14T09:20:50;7.50;1.00
20349;DHT22;10332;50.208;18.988;2023-12-14T09:23:18;7.40;1.00
20349;DHT22;10332;50.208;18.988;2023-12-14T09:25:46;7.40;1.00
20349;DHT22;10332;50.208;18.988;2023-12-14T09:28:14;7.40;1.00
20349;DHT22;10332;50.208;18.988;2023-12-14T09:30:41;7.40;1.00
20349;DHT22;10332;50.208;18.988;2023-12-14T09:33:09;7.40;1.00
20349;DHT22;10332;50.208;18.988;2023-12-14T09:35:36;7.30;1.00
20349;DHT22;10332;50.208;18.988;2023-12-14T09:38:06;7.30;1.00
20349;DHT22;10332;50.208;18.988;2023-12-14T09:40:33;7.30;1.00
20349;DHT22;10332;50.208;18.988;2023-12-14T09:43:02;7.20;1.00
20349;DHT22;10332;50.208;18.988;2023-12-14T09:45:35;7.30;1.00
20349;DHT22;10332;50.208;18.988;2023-12-14T09:48:03;7.20;1.00
20349;DHT22;10332;50.208;18.988;2023-12-14T09:50:33;7.30;1.00
20349;DHT22;10332;50.208;18.988;2023-12-14T09:53:01;7.20;1.00
20349;DHT22;10332;50.208;18.988;2023-12-14T09:55:28;7.30;1.00
20349;DHT22;10332;50.208;18.988;2023-12-14T09:57:56;7.30;1.00
20349;DHT22;10332;50.208;18.988;2023-12-14T10:00:33;7.30;1.00
20349;DHT22;10332;50.208;18.988;2023-12-14T10:03:20;7.30;1.00
20349;DHT22;10332;50.208;18.988;2023-12-14T10:05:48;7.30;1.00
20349;DHT22;10332;50.208;18.988;2023-12-14T10:08:17;7.30;1.00
20349;DHT22;10332;50.208;18.988;2023-12-14T10:10:47;7.30;1.00
20349;DHT22;10332;50.208;18.988;2023-12-14T10:13:16;7.30;1.00
20349;DHT22;10332;50.208;18.988;2023-12-14T10:15:48;7.30;1.00
20349;DHT22;10332;50.208;18.988;2023-12-14T10:18:23;7.40;1.00
20349;DHT22;10332;50.208;18.988;2023-12-14T10:20:54;7.30;1.00
20349;DHT22;10332;50.208;18.988;2023-12-14T10:23:23;7.30;1.00
20349;DHT22;10332;50.208;18.988;2023-12-14T10:25:52;7.30;1.00
20349;DHT22;10332;50.208;18.988;2023-12-14T10:28:20;7.30;1.00
20349;DHT22;10332;50.208;18.988;2023-12-14T10:30:47;7.40;1.00
20349;DHT22;10332;50.208;18.988;2023-12-14T10:33:15;7.40;1.00
20349;DHT22;10332;50.208;18.988;2023-12-14T10:35:43;7.40;99.90
20349;DHT22;10332;50.208;18.988;2023-12-14T10:38:15;7.30;99.90
20349;DHT22;10332;50.208;18.988;2023-12-14T10:40:47;7.30;1.00
20349;DHT22;10332;50.208;18.988;2023-12-14T10:43:16;7.30;99.90
20349;DHT22;10332;50.208;18.988;2023-12-14T10:46:05;7.30;1.00
20349;DHT22;10332;50.208;18.988;2023-12-14T10:48:35;7.30;99.90
20349;DHT22;10332;50.208;18.988;2023-12-14T10:51:06;7.30;99.90
20349;DHT22;10332;50.208;18.988;2023-12-14T10:53:36;7.40;1.00
20349;DHT22;10332;50.208;18.988;2023-12-14T10:56:07;7.40;99.90
20349;DHT22;10332;50.208;18.988;2023-12-14T10:58:57;7.40;1.00
20349;DHT22;10332;50.208;18.988;2023-12-14T11:01:25;7.50;1.00
20349;DHT22;10332;50.208;18.988;2023-12-14T11:03:55;7.50;99.90
20349;DHT22;10332;50.208;18.988;2023-12-14T11:06:29;7.50;11.10
20349;DHT22;10332;50.208;18.988;2023-12-14T11:09:06;7.50;99.90
20349;DHT22;10332;50.208;18.988;2023-12-14T11:14:22;7.60;1.00
20349;DHT22;10332;50.208;18.988;2023-12-14T11:16:54;7.50;1.00
20349;DHT22;10332;50.208;18.988;2023-12-14T11:24:23;7.60;99.90
20349;DHT22;10332;50.208;18.988;2023-12-14T11:26:50;7.70;1.00
20349;DHT22;10332;50.208;18.988;2023-12-14T11:29:19;7.80;99.90
20349;DHT22;10332;50.208;18.988;2023-12-14T11:31:47;7.80;1.00
20349;DHT22;10332;50.208;18.988;2023-12-14T11:34:15;7.80;1.00
20349;DHT22;10332;50.208;18.988;2023-12-14T11:36:44;7.70;1.00
20349;DHT22;10332;50.208;18.988;2023-12-14T11:39:13;7.70;1.00
20349;DHT22;10332;50.208;18.988;2023-12-14T11:41:41;7.60;99.90
20349;DHT22;10332;50.208;18.988;2023-12-14T11:44:09;7.60;1.00
20349;DHT22;10332;50.208;18.988;2023-12-14T11:46:36;7.50;1.00
20349;DHT22;10332;50.208;18.988;2023-12-14T11:49:04;7.50;99.90
20349;DHT22;10332;50.208;18.988;2023-12-14T11:51:33;7.40;1.00
20349;DHT22;10332;50.208;18.988;2023-12-14T11:54:01;7.40;1.00
20349;DHT22;10332;50.208;18.988;2023-12-14T11:56:29;7.30;1.00
20349;DHT22;10332;50.208;18.988;2023-12-14T11:58:58;7.30;99.90
20349;DHT22;10332;50.208;18.988;2023-12-14T12:01:25;7.30;1.00
20349;DHT22;10332;50.208;18.988;2023-12-14T12:03:55;7.40;1.00
20349;DHT22;10332;50.208;18.988;2023-12-14T12:06:24;7.40;1.00
20349;DHT22;10332;50.208;18.988;2023-12-14T12:08:52;7.40;1.00
20349;DHT22;10332;50.208;18.988;2023-12-14T12:11:24;7.40;1.00
20349;DHT22;10332;50.208;18.988;2023-12-14T12:13:54;7.50;1.00
20349;DHT22;10332;50.208;18.988;2023-12-14T12:16:22;7.50;1.00
20349;DHT22;10332;50.208;18.988;2023-12-14T12:18:50;7.50;1.00
20349;DHT22;10332;50.208;18.988;2023-12-14T12:21:18;7.50;1.00
20349;DHT22;10332;50.208;18.988;2023-12-14T12:23:45;7.60;1.00
20349;DHT22;10332;50.208;18.988;2023-12-14T12:26:13;7.60;1.00
20349;DHT22;10332;50.208;18.988;2023-12-14T12:28:40;7.50;99.90
20349;DHT22;10332;50.208;18.988;2023-12-14T12:31:08;7.50;99.90
20349;DHT22;10332;50.208;18.988;2023-12-14T12:33:35;7.50;99.90
20349;DHT22;10332;50.208;18.988;2023-12-14T12:36:06;7.50;1.00
20349;DHT22;10332;50.208;18.988;2023-12-14T12:38:35;7.50;1.00
20349;DHT22;10332;50.208;18.988;2023-12-14T12:41:07;7.60;99.90
20349;DHT22;10332;50.208;18.988;2023-12-14T12:43:35;7.50;99.90
20349;DHT22;10332;50.208;18.988;2023-12-14T12:46:03;7.50;99.90
20349;DHT22;10332;50.208;18.988;2023-12-14T12:48:30;7.50;99.90
20349;DHT22;10332;50.208;18.988;2023-12-14T12:50:58;7.50;1.00
20349;DHT22;10332;50.208;18.988;2023-12-14T12:53:25;7.50;1.00
20349;DHT22;10332;50.208;18.988;2023-12-14T12:55:53;7.60;1.00
20349;DHT22;10332;50.208;18.988;2023-12-14T12:58:21;7.60;1.00
20349;DHT22;10332;50.208;18.988;2023-12-14T13:00:48;7.60;1.00
20349;DHT22;10332;50.208;18.988;2023-12-14T13:03:16;7.50;1.00
20349;DHT22;10332;50.208;18.988;2023-12-14T13:05:43;7.50;1.00
20349;DHT22;10332;50.208;18.988;2023-12-14T13:08:12;7.40;1.00
20349;DHT22;10332;50.208;18.988;2023-12-14T13:10:39;7.40;1.00
20349;DHT22;10332;50.208;18.988;2023-12-14T13:13:06;7.30;1.00
20349;DHT22;10332;50.208;18.988;2023-12-14T13:15:37;7.30;1.00
20349;DHT22;10332;50.208;18.988;2023-12-14T13:18:06;7.30;1.00
20349;DHT22;10332;50.208;18.988;2023-12-14T13:20:35;7.30;1.00
20349;DHT22;10332;50.208;18.988;2023-12-14T13:23:02;7.20;1.00
20349;DHT22;10332;50.208;18.988;2023-12-14T13:25:30;7.20;53.10
20349;DHT22;10332;50.208;18.988;2023-12-14T13:27:57;7.20;95.60
20349;DHT22;10332;50.208;18.988;2023-12-14T13:30:24;7.20;1.00
20349;DHT22;10332;50.208;18.988;2023-12-14T13:32:52;7.20;1.00
20349;DHT22;10332;50.208;18.988;2023-12-14T13:35:21;7.20;1.00
20349;DHT22;10332;50.208;18.988;2023-12-14T13:37:50;7.20;1.00
20349;DHT22;10332;50.208;18.988;2023-12-14T13:40:17;7.10;21.50
20349;DHT22;10332;50.208;18.988;2023-12-14T13:42:45;7.20;55.10
20349;DHT22;10332;50.208;18.988;2023-12-14T13:45:29;7.20;1.00
20349;DHT22;10332;50.208;18.988;2023-12-14T13:47:58;7.10;1.00
20349;DHT22;10332;50.208;18.988;2023-12-14T13:50:31;7.10;1.00
20349;DHT22;10332;50.208;18.988;2023-12-14T13:52:59;7.10;1.00
20349;DHT22;10332;50.208;18.988;2023-12-14T13:55:26;7.10;51.50
20349;DHT22;10332;50.208;18.988;2023-12-14T13:57:54;7.20;99.90
20349;DHT22;10332;50.208;18.988;2023-12-14T14:00:25;7.20;99.90
20349;DHT22;10332;50.208;18.988;2023-12-14T14:02:53;7.10;99.90
20349;DHT22;10332;50.208;18.988;2023-12-14T14:05:20;7.10;99.90
20349;DHT22;10332;50.208;18.988;2023-12-14T14:07:48;7.10;99.90
20349;DHT22;10332;50.208;18.988;2023-12-14T14:10:15;7.10;99.90
20349;DHT22;10332;50.208;18.988;2023-12-14T14:12:43;7.00;99.90
20349;DHT22;10332;50.208;18.988;2023-12-14T14:15:10;7.00;99.90
20349;DHT22;10332;50.208;18.988;2023-12-14T14:17:38;7.00;99.90
20349;DHT22;10332;50.208;18.988;2023-12-14T14:20:06;7.00;99.90
20349;DHT22;10332;50.208;18.988;2023-12-14T14:22:34;7.00;99.90
20349;DHT22;10332;50.208;18.988;2023-12-14T14:25:02;7.00;1.00
20349;DHT22;10332;50.208;18.988;2023-12-14T14:27:30;7.00;1.00
20349;DHT22;10332;50.208;18.988;2023-12-14T14:29:57;7.00;1.00
20349;DHT22;10332;50.208;18.988;2023-12-14T14:32:24;7.00;1.00
20349;DHT22;10332;50.208;18.988;2023-12-14T14:34:52;7.00;1.00
20349;DHT22;10332;50.208;18.988;2023-12-14T14:37:21;7.00;1.00
20349;DHT22;10332;50.208;18.988;2023-12-14T14:39:49;7.10;1.00
20349;DHT22;10332;50.208;18.988;2023-12-14T14:42:16;7.00;1.00
20349;DHT22;10332;50.208;18.988;2023-12-14T14:44:44;7.10;1.00
20349;DHT22;10332;50.208;18.988;2023-12-14T14:47:11;7.10;1.00
20349;DHT22;10332;50.208;18.988;2023-12-14T14:49:40;7.00;1.00
20349;DHT22;10332;50.208;18.988;2023-12-14T14:52:07;7.00;1.00
20349;DHT22;10332;50.208;18.988;2023-12-14T14:54:34;7.00;1.00
20349;DHT22;10332;50.208;18.988;2023-12-14T14:57:02;7.10;1.00
20349;DHT22;10332;50.208;18.988;2023-12-14T14:59:33;7.00;1.00
20349;DHT22;10332;50.208;18.988;2023-12-14T15:02:01;7.00;1.00
20349;DHT22;10332;50.208;18.988;2023-12-14T15:04:29;6.90;1.00
20349;DHT22;10332;50.208;18.988;2023-12-14T15:06:56;6.90;1.00
20349;DHT22;10332;50.208;18.988;2023-12-14T15:09:23;6.90;1.00
20349;DHT22;10332;50.208;18.988;2023-12-14T15:11:51;6.90;1.00
20349;DHT22;10332;50.208;18.988;2023-12-14T15:14:18;6.90;1.00
20349;DHT22;10332;50.208;18.988;2023-12-14T15:16:46;6.90;1.00
20349;DHT22;10332;50.208;18.988;2023-12-14T15:19:13;6.90;1.00
20349;DHT22;10332;50.208;18.988;2023-12-14T15:21:41;6.90;1.00
20349;DHT22;10332;50.208;18.988;2023-12-14T15:24:09;6.90;1.00
20349;DHT22;10332;50.208;18.988;2023-12-14T15:26:37;6.90;1.00
20349;DHT22;10332;50.208;18.988;2023-12-14T15:29:04;6.90;1.00
20349;DHT22;10332;50.208;18.988;2023-12-14T15:31:32;7.00;1.00
20349;DHT22;10332;50.208;18.988;2023-12-14T15:33:59;7.00;1.00
20349;DHT22;10332;50.208;18.988;2023-12-14T15:36:28;7.00;1.00
20349;DHT22;10332;50.208;18.988;2023-12-14T15:38:57;7.00;1.00
20349;DHT22;10332;50.208;18.988;2023-12-14T15:41:28;7.00;1.00
20349;DHT22;10332;50.208;18.988;2023-12-14T15:44:03;7.00;1.00
20349;DHT22;10332;50.208;18.988;2023-12-14T15:46:30;7.00;1.00
20349;DHT22;10332;50.208;18.988;2023-12-14T15:48:58;6.90;1.00
20349;DHT22;10332;50.208;18.988;2023-12-14T15:51:26;6.90;1.00
20349;DHT22;10332;50.208;18.988;2023-12-14T15:53:53;6.90;1.00
20349;DHT22;10332;50.208;18.988;2023-12-14T15:56:23;6.90;1.00